Overview Statistics Trail Chart Weather Telemetry Raw packets
 

This is the latest recevied weather packets stored in our database for station/object OK2ZAW-19. If no packets are shown the sender has not sent any weather packets the latest 10 day(s).

<< 1 2 3 4 5 6 >>
Time Temp. Humidity Pressure Rain* Wind** Luminosity Snow
1788551046 20.56° C 77% 1014.7 hPa - - 337 W/m² -
1788550734 20.56° C 77% 1014.6 hPa - - 337 W/m² -
1788550423 20.56° C 76% 1014.7 hPa - - 337 W/m² -
1788550112 21.11° C 75% 1014.7 hPa - - 337 W/m² -
1788549801 21.11° C 76% 1014.7 hPa - - 337 W/m² -
1788549489 20.56° C 76% 1014.8 hPa - - 337 W/m² -
1788549177 20.56° C 77% 1015 hPa - - 337 W/m² -
1788548866 21.11° C 76% 1015.1 hPa - - 337 W/m² -
1788548243 21.11° C 76% 1015.2 hPa - - 337 W/m² -
1788547931 21.11° C 76% 1015.2 hPa - - 337 W/m² -
1788547620 21.11° C 76% 1015.1 hPa - - 337 W/m² -
1788547309 21.11° C 76% 1015.1 hPa - - 338 W/m² -
1788546997 21.11° C 76% 1015.2 hPa - - 338 W/m² -
1788546686 21.11° C 76% 1015.1 hPa - - 337 W/m² -
1788546063 21.11° C 74% 1015.1 hPa - - 338 W/m² -
1788545751 21.11° C 73% 1015.1 hPa - - 337 W/m² -
1788545440 21.11° C 72% 1015 hPa - - 338 W/m² -
1788544817 21.11° C 70% 1014.9 hPa - - 338 W/m² -
1788544505 21.67° C 69% 1014.8 hPa - - 338 W/m² -
1788544194 21.67° C 68% 1014.7 hPa - - 338 W/m² -
1788543259 22.22° C 64% 1014.5 hPa - - 337 W/m² -
1788542947 22.78° C 62% 1014.5 hPa - - 338 W/m² -
1788542324 23.33° C 59% 1014.3 hPa - - 337 W/m² -
1788542012 23.33° C 58% 1014.2 hPa - - 338 W/m² -
1788541388 24.44° C 55% 1014.2 hPa - - 338 W/m² -

* Rain since midnight (hover to see other rain measurements)
** Current wind speed in m/s (hover to see current wind gust speed)